sensor_id;sensor_type;location;lat;lon;timestamp;temperature;humidity
36442;DHT22;64346;50.820;16.274;2023-06-01T00:01:09;12.60;99.90
36442;DHT22;64346;50.820;16.274;2023-06-01T00:03:44;12.60;99.90
36442;DHT22;64346;50.820;16.274;2023-06-01T00:06:12;12.60;99.90
36442;DHT22;64346;50.820;16.274;2023-06-01T00:08:39;12.60;99.90
36442;DHT22;64346;50.820;16.274;2023-06-01T00:11:06;12.50;99.90
36442;DHT22;64346;50.820;16.274;2023-06-01T00:13:36;12.50;99.90
36442;DHT22;64346;50.820;16.274;2023-06-01T00:16:08;12.50;99.90
36442;DHT22;64346;50.820;16.274;2023-06-01T00:18:38;12.50;99.90
36442;DHT22;64346;50.820;16.274;2023-06-01T00:21:06;12.60;99.90
36442;DHT22;64346;50.820;16.274;2023-06-01T00:23:33;12.50;99.90
36442;DHT22;64346;50.820;16.274;2023-06-01T00:26:01;12.50;99.90
36442;DHT22;64346;50.820;16.274;2023-06-01T00:28:28;12.50;99.90
36442;DHT22;64346;50.820;16.274;2023-06-01T00:30:56;12.50;99.90
36442;DHT22;64346;50.820;16.274;2023-06-01T00:33:25;12.50;99.90
36442;DHT22;64346;50.820;16.274;2023-06-01T00:35:55;12.50;99.90
36442;DHT22;64346;50.820;16.274;2023-06-01T00:38:25;12.50;99.90
36442;DHT22;64346;50.820;16.274;2023-06-01T00:40:52;12.50;99.90
36442;DHT22;64346;50.820;16.274;2023-06-01T00:43:20;12.50;99.90
36442;DHT22;64346;50.820;16.274;2023-06-01T00:45:47;12.60;99.90
36442;DHT22;64346;50.820;16.274;2023-06-01T00:48:15;12.50;99.90
36442;DHT22;64346;50.820;16.274;2023-06-01T00:50:43;12.50;99.90
36442;DHT22;64346;50.820;16.274;2023-06-01T00:53:17;12.60;99.90
36442;DHT22;64346;50.820;16.274;2023-06-01T00:55:47;12.60;99.90
36442;DHT22;64346;50.820;16.274;2023-06-01T00:58:15;12.60;99.90
36442;DHT22;64346;50.820;16.274;2023-06-01T01:00:43;12.50;99.90
36442;DHT22;64346;50.820;16.274;2023-06-01T01:03:10;12.50;99.90
36442;DHT22;64346;50.820;16.274;2023-06-01T01:05:40;12.60;99.90
36442;DHT22;64346;50.820;16.274;2023-06-01T01:08:25;12.50;99.90
36442;DHT22;64346;50.820;16.274;2023-06-01T01:11:06;12.50;99.90
36442;DHT22;64346;50.820;16.274;2023-06-01T01:13:37;12.50;99.90
36442;DHT22;64346;50.820;16.274;2023-06-01T01:16:28;12.50;99.90
36442;DHT22;64346;50.820;16.274;2023-06-01T01:19:03;12.50;99.90
36442;DHT22;64346;50.820;16.274;2023-06-01T01:21:40;12.50;99.90
36442;DHT22;64346;50.820;16.274;2023-06-01T01:27:27;12.40;99.90
36442;DHT22;64346;50.820;16.274;2023-06-01T01:30:02;12.40;99.90
36442;DHT22;64346;50.820;16.274;2023-06-01T01:32:30;12.40;99.90
36442;DHT22;64346;50.820;16.274;2023-06-01T01:34:59;12.40;99.90
36442;DHT22;64346;50.820;16.274;2023-06-01T01:37:27;12.40;99.90
36442;DHT22;64346;50.820;16.274;2023-06-01T01:39:56;12.50;99.90
36442;DHT22;64346;50.820;16.274;2023-06-01T01:42:24;12.50;99.90
36442;DHT22;64346;50.820;16.274;2023-06-01T01:44:51;12.50;99.90
36442;DHT22;64346;50.820;16.274;2023-06-01T01:49:56;12.50;99.90
36442;DHT22;64346;50.820;16.274;2023-06-01T01:52:37;12.50;99.90
36442;DHT22;64346;50.820;16.274;2023-06-01T01:55:07;12.50;99.90
36442;DHT22;64346;50.820;16.274;2023-06-01T01:57:35;12.50;99.90
36442;DHT22;64346;50.820;16.274;2023-06-01T02:00:04;12.50;99.90
36442;DHT22;64346;50.820;16.274;2023-06-01T02:02:32;12.50;99.90
36442;DHT22;64346;50.820;16.274;2023-06-01T02:05:02;12.50;99.90
36442;DHT22;64346;50.820;16.274;2023-06-01T02:07:32;12.40;99.90
36442;DHT22;64346;50.820;16.274;2023-06-01T02:09:59;12.40;99.90
36442;DHT22;64346;50.820;16.274;2023-06-01T02:12:29;12.40;99.90
36442;DHT22;64346;50.820;16.274;2023-06-01T02:14:56;12.30;99.90
36442;DHT22;64346;50.820;16.274;2023-06-01T02:17:24;12.40;99.90
36442;DHT22;64346;50.820;16.274;2023-06-01T02:19:51;12.40;99.90
36442;DHT22;64346;50.820;16.274;2023-06-01T02:22:18;12.40;99.90
36442;DHT22;64346;50.820;16.274;2023-06-01T02:24:46;12.30;99.90
36442;DHT22;64346;50.820;16.274;2023-06-01T02:27:16;12.30;99.90
36442;DHT22;64346;50.820;16.274;2023-06-01T02:29:43;12.40;99.90
36442;DHT22;64346;50.820;16.274;2023-06-01T02:32:10;12.40;99.90
36442;DHT22;64346;50.820;16.274;2023-06-01T02:34:37;12.40;99.90
36442;DHT22;64346;50.820;16.274;2023-06-01T02:37:05;12.40;99.90
36442;DHT22;64346;50.820;16.274;2023-06-01T02:39:35;12.40;99.90
36442;DHT22;64346;50.820;16.274;2023-06-01T02:42:02;12.40;99.90
36442;DHT22;64346;50.820;16.274;2023-06-01T02:44:29;12.40;99.90
36442;DHT22;64346;50.820;16.274;2023-06-01T02:46:57;12.40;99.90
36442;DHT22;64346;50.820;16.274;2023-06-01T02:49:26;12.40;99.90
36442;DHT22;64346;50.820;16.274;2023-06-01T02:51:54;12.30;99.90
36442;DHT22;64346;50.820;16.274;2023-06-01T02:54:21;12.30;99.90
36442;DHT22;64346;50.820;16.274;2023-06-01T02:56:48;12.30;99.90
36442;DHT22;64346;50.820;16.274;2023-06-01T02:59:18;12.30;99.90
36442;DHT22;64346;50.820;16.274;2023-06-01T03:04:16;12.40;99.90
36442;DHT22;64346;50.820;16.274;2023-06-01T03:06:46;12.40;99.90
36442;DHT22;64346;50.820;16.274;2023-06-01T03:09:13;12.40;99.90
36442;DHT22;64346;50.820;16.274;2023-06-01T03:11:43;12.40;99.90
36442;DHT22;64346;50.820;16.274;2023-06-01T03:14:10;12.40;99.90
36442;DHT22;64346;50.820;16.274;2023-06-01T03:16:38;12.40;99.90
36442;DHT22;64346;50.820;16.274;2023-06-01T03:19:08;12.40;99.90
36442;DHT22;64346;50.820;16.274;2023-06-01T03:21:35;12.50;99.90
36442;DHT22;64346;50.820;16.274;2023-06-01T03:24:02;12.50;99.90
36442;DHT22;64346;50.820;16.274;2023-06-01T03:26:30;12.50;99.90
36442;DHT22;64346;50.820;16.274;2023-06-01T03:28:57;12.60;99.90
36442;DHT22;64346;50.820;16.274;2023-06-01T03:31:27;12.60;99.90
36442;DHT22;64346;50.820;16.274;2023-06-01T03:33:54;12.70;99.90
36442;DHT22;64346;50.820;16.274;2023-06-01T03:36:21;12.90;99.90
36442;DHT22;64346;50.820;16.274;2023-06-01T03:38:48;13.00;99.90
36442;DHT22;64346;50.820;16.274;2023-06-01T03:41:18;13.20;99.90
36442;DHT22;64346;50.820;16.274;2023-06-01T03:43:48;13.40;99.90
36442;DHT22;64346;50.820;16.274;2023-06-01T03:46:20;13.60;99.90
36442;DHT22;64346;50.820;16.274;2023-06-01T03:48:49;13.70;99.90
36442;DHT22;64346;50.820;16.274;2023-06-01T03:51:17;13.90;99.60
36442;DHT22;64346;50.820;16.274;2023-06-01T03:53:47;14.00;99.10
36442;DHT22;64346;50.820;16.274;2023-06-01T03:56:14;14.20;99.00
36442;DHT22;64346;50.820;16.274;2023-06-01T03:58:41;14.30;98.70
36442;DHT22;64346;50.820;16.274;2023-06-01T04:01:11;14.50;98.50
36442;DHT22;64346;50.820;16.274;2023-06-01T04:03:43;14.60;98.30
36442;DHT22;64346;50.820;16.274;2023-06-01T04:06:11;14.80;98.00
36442;DHT22;64346;50.820;16.274;2023-06-01T04:08:40;15.00;97.50
36442;DHT22;64346;50.820;16.274;2023-06-01T04:11:07;15.30;97.20
36442;DHT22;64346;50.820;16.274;2023-06-01T04:13:35;15.50;96.70
36442;DHT22;64346;50.820;16.274;2023-06-01T04:16:04;15.70;96.10
36442;DHT22;64346;50.820;16.274;2023-06-01T04:18:34;16.00;95.80
36442;DHT22;64346;50.820;16.274;2023-06-01T04:21:02;16.30;95.10
36442;DHT22;64346;50.820;16.274;2023-06-01T04:23:29;16.60;94.80
36442;DHT22;64346;50.820;16.274;2023-06-01T04:25:57;16.90;94.00
36442;DHT22;64346;50.820;16.274;2023-06-01T04:28:26;17.30;93.30
36442;DHT22;64346;50.820;16.274;2023-06-01T04:30:56;17.80;92.40
36442;DHT22;64346;50.820;16.274;2023-06-01T04:33:26;18.30;91.60
36442;DHT22;64346;50.820;16.274;2023-06-01T04:35:54;18.70;90.70
36442;DHT22;64346;50.820;16.274;2023-06-01T04:38:21;19.20;89.60
36442;DHT22;64346;50.820;16.274;2023-06-01T04:40:48;19.70;87.70
36442;DHT22;64346;50.820;16.274;2023-06-01T04:43:18;20.10;85.80
36442;DHT22;64346;50.820;16.274;2023-06-01T04:45:46;20.70;84.20
36442;DHT22;64346;50.820;16.274;2023-06-01T04:48:13;21.10;82.70
36442;DHT22;64346;50.820;16.274;2023-06-01T04:50:40;21.40;81.40
36442;DHT22;64346;50.820;16.274;2023-06-01T04:53:10;21.80;79.90
36442;DHT22;64346;50.820;16.274;2023-06-01T04:55:39;22.10;78.10
36442;DHT22;64346;50.820;16.274;2023-06-01T04:58:07;22.50;77.20
36442;DHT22;64346;50.820;16.274;2023-06-01T05:00:34;22.90;75.60
36442;DHT22;64346;50.820;16.274;2023-06-01T05:03:01;23.30;74.30
36442;DHT22;64346;50.820;16.274;2023-06-01T05:05:29;23.60;73.20
36442;DHT22;64346;50.820;16.274;2023-06-01T05:08:01;23.80;72.20
36442;DHT22;64346;50.820;16.274;2023-06-01T05:10:30;24.20;71.60
36442;DHT22;64346;50.820;16.274;2023-06-01T05:12:57;24.60;70.20
36442;DHT22;64346;50.820;16.274;2023-06-01T05:15:24;25.00;69.30
36442;DHT22;64346;50.820;16.274;2023-06-01T05:17:51;25.40;68.40
36442;DHT22;64346;50.820;16.274;2023-06-01T05:20:21;25.80;67.70
36442;DHT22;64346;50.820;16.274;2023-06-01T05:22:48;26.20;66.80
36442;DHT22;64346;50.820;16.274;2023-06-01T05:25:16;26.60;65.80
36442;DHT22;64346;50.820;16.274;2023-06-01T05:27:43;27.10;65.10
36442;DHT22;64346;50.820;16.274;2023-06-01T05:30:11;27.60;63.90
36442;DHT22;64346;50.820;16.274;2023-06-01T05:32:39;28.10;63.10
36442;DHT22;64346;50.820;16.274;2023-06-01T05:35:09;29.10;61.20
36442;DHT22;64346;50.820;16.274;2023-06-01T05:37:39;30.60;58.60
36442;DHT22;64346;50.820;16.274;2023-06-01T05:40:07;32.80;55.10
36442;DHT22;64346;50.820;16.274;2023-06-01T05:42:35;35.00;51.60
36442;DHT22;64346;50.820;16.274;2023-06-01T05:45:02;37.10;48.40
36442;DHT22;64346;50.820;16.274;2023-06-01T05:47:30;39.10;46.00
36442;DHT22;64346;50.820;16.274;2023-06-01T05:49:57;40.70;43.60
36442;DHT22;64346;50.820;16.274;2023-06-01T05:52:27;41.40;42.30
36442;DHT22;64346;50.820;16.274;2023-06-01T05:54:54;42.30;41.30
36442;DHT22;64346;50.820;16.274;2023-06-01T05:57:22;43.20;40.30
36442;DHT22;64346;50.820;16.274;2023-06-01T05:59:49;44.40;39.40
36442;DHT22;64346;50.820;16.274;2023-06-01T06:02:16;45.70;38.90
36442;DHT22;64346;50.820;16.274;2023-06-01T06:04:44;46.90;38.10
36442;DHT22;64346;50.820;16.274;2023-06-01T06:07:11;47.90;36.70
36442;DHT22;64346;50.820;16.274;2023-06-01T06:09:40;48.40;36.30
36442;DHT22;64346;50.820;16.274;2023-06-01T06:12:09;48.60;35.70
36442;DHT22;64346;50.820;16.274;2023-06-01T06:14:37;49.10;36.10
36442;DHT22;64346;50.820;16.274;2023-06-01T06:17:07;49.90;34.60
36442;DHT22;64346;50.820;16.274;2023-06-01T06:19:34;50.60;34.20
36442;DHT22;64346;50.820;16.274;2023-06-01T06:22:02;51.60;34.00
36442;DHT22;64346;50.820;16.274;2023-06-01T06:24:29;52.50;33.50
36442;DHT22;64346;50.820;16.274;2023-06-01T06:27:01;53.50;33.10
36442;DHT22;64346;50.820;16.274;2023-06-01T06:29:29;53.90;32.70
36442;DHT22;64346;50.820;16.274;2023-06-01T06:31:56;54.40;32.40
36442;DHT22;64346;50.820;16.274;2023-06-01T06:34:31;54.50;31.80
36442;DHT22;64346;50.820;16.274;2023-06-01T06:36:58;53.70;31.50
36442;DHT22;64346;50.820;16.274;2023-06-01T06:39:28;52.60;31.80
36442;DHT22;64346;50.820;16.274;2023-06-01T06:41:55;52.00;32.10
36442;DHT22;64346;50.820;16.274;2023-06-01T06:44:23;51.80;32.10
36442;DHT22;64346;50.820;16.274;2023-06-01T06:46:50;52.40;32.00
36442;DHT22;64346;50.820;16.274;2023-06-01T06:49:18;52.80;31.90
36442;DHT22;64346;50.820;16.274;2023-06-01T06:51:45;53.00;31.50
36442;DHT22;64346;50.820;16.274;2023-06-01T06:54:13;53.00;31.30
36442;DHT22;64346;50.820;16.274;2023-06-01T06:56:42;52.80;31.30
36442;DHT22;64346;50.820;16.274;2023-06-01T06:59:13;53.10;31.30
36442;DHT22;64346;50.820;16.274;2023-06-01T07:01:40;53.40;31.30
36442;DHT22;64346;50.820;16.274;2023-06-01T07:04:08;53.30;31.10
36442;DHT22;64346;50.820;16.274;2023-06-01T07:06:36;53.60;31.20
36442;DHT22;64346;50.820;16.274;2023-06-01T07:09:05;54.00;31.10
36442;DHT22;64346;50.820;16.274;2023-06-01T07:11:35;54.40;31.00
36442;DHT22;64346;50.820;16.274;2023-06-01T07:14:03;55.00;30.70
36442;DHT22;64346;50.820;16.274;2023-06-01T07:16:32;55.60;30.60
36442;DHT22;64346;50.820;16.274;2023-06-01T07:19:00;55.70;30.30
36442;DHT22;64346;50.820;16.274;2023-06-01T07:21:27;55.30;30.10
36442;DHT22;64346;50.820;16.274;2023-06-01T07:23:55;54.90;29.80
36442;DHT22;64346;50.820;16.274;2023-06-01T07:26:22;55.00;29.80
36442;DHT22;64346;50.820;16.274;2023-06-01T07:28:49;55.30;29.90
36442;DHT22;64346;50.820;16.274;2023-06-01T07:31:16;54.60;29.60
36442;DHT22;64346;50.820;16.274;2023-06-01T07:33:44;53.80;29.50
36442;DHT22;64346;50.820;16.274;2023-06-01T07:36:11;52.70;29.90
36442;DHT22;64346;50.820;16.274;2023-06-01T07:38:41;51.80;30.00
36442;DHT22;64346;50.820;16.274;2023-06-01T07:41:09;50.50;30.10
36442;DHT22;64346;50.820;16.274;2023-06-01T07:43:37;49.50;30.30
36442;DHT22;64346;50.820;16.274;2023-06-01T07:46:05;48.10;31.00
36442;DHT22;64346;50.820;16.274;2023-06-01T07:48:32;46.60;31.20
36442;DHT22;64346;50.820;16.274;2023-06-01T07:50:59;45.60;31.80
36442;DHT22;64346;50.820;16.274;2023-06-01T07:53:27;45.20;32.00
36442;DHT22;64346;50.820;16.274;2023-06-01T07:55:55;44.80;31.90
36442;DHT22;64346;50.820;16.274;2023-06-01T07:58:22;44.90;32.00
36442;DHT22;64346;50.820;16.274;2023-06-01T08:00:49;45.50;31.70
36442;DHT22;64346;50.820;16.274;2023-06-01T08:03:17;46.80;31.20
36442;DHT22;64346;50.820;16.274;2023-06-01T08:05:45;48.50;30.80
36442;DHT22;64346;50.820;16.274;2023-06-01T08:08:12;50.30;30.30
36442;DHT22;64346;50.820;16.274;2023-06-01T08:10:42;52.20;29.90
36442;DHT22;64346;50.820;16.274;2023-06-01T08:13:12;53.50;29.70
36442;DHT22;64346;50.820;16.274;2023-06-01T08:15:40;54.70;29.60
36442;DHT22;64346;50.820;16.274;2023-06-01T08:18:07;55.60;29.60
36442;DHT22;64346;50.820;16.274;2023-06-01T08:20:34;56.30;29.40
36442;DHT22;64346;50.820;16.274;2023-06-01T08:23:02;56.60;29.30
36442;DHT22;64346;50.820;16.274;2023-06-01T08:25:34;56.00;29.20
36442;DHT22;64346;50.820;16.274;2023-06-01T08:28:01;55.10;29.40
36442;DHT22;64346;50.820;16.274;2023-06-01T08:30:31;54.30;29.30
36442;DHT22;64346;50.820;16.274;2023-06-01T08:32:59;52.90;29.40
36442;DHT22;64346;50.820;16.274;2023-06-01T08:35:26;52.40;29.80
36442;DHT22;64346;50.820;16.274;2023-06-01T08:37:53;52.30;29.70
36442;DHT22;64346;50.820;16.274;2023-06-01T08:40:21;51.90;29.60
36442;DHT22;64346;50.820;16.274;2023-06-01T08:45:39;50.40;30.00
36442;DHT22;64346;50.820;16.274;2023-06-01T08:48:08;49.50;30.70
36442;DHT22;64346;50.820;16.274;2023-06-01T08:50:35;48.40;30.90
36442;DHT22;64346;50.820;16.274;2023-06-01T08:53:04;47.40;31.20
36442;DHT22;64346;50.820;16.274;2023-06-01T08:55:32;46.00;31.30
36442;DHT22;64346;50.820;16.274;2023-06-01T08:58:04;44.80;32.00
36442;DHT22;64346;50.820;16.274;2023-06-01T09:00:32;43.40;31.60
36442;DHT22;64346;50.820;16.274;2023-06-01T09:03:02;42.00;32.50
36442;DHT22;64346;50.820;16.274;2023-06-01T09:05:30;40.60;33.40
36442;DHT22;64346;50.820;16.274;2023-06-01T09:08:00;39.50;34.00
36442;DHT22;64346;50.820;16.274;2023-06-01T09:10:27;38.40;35.50
36442;DHT22;64346;50.820;16.274;2023-06-01T09:12:55;37.50;35.50
36442;DHT22;64346;50.820;16.274;2023-06-01T09:15:22;36.70;36.20
36442;DHT22;64346;50.820;16.274;2023-06-01T09:18:09;35.80;36.50
36442;DHT22;64346;50.820;16.274;2023-06-01T09:20:40;34.90;39.30
36442;DHT22;64346;50.820;16.274;2023-06-01T09:23:08;33.90;39.80
36442;DHT22;64346;50.820;16.274;2023-06-01T09:25:35;32.70;40.80
36442;DHT22;64346;50.820;16.274;2023-06-01T09:28:05;31.60;42.50
36442;DHT22;64346;50.820;16.274;2023-06-01T09:30:43;30.70;43.80
36442;DHT22;64346;50.820;16.274;2023-06-01T09:33:19;29.90;44.80
36442;DHT22;64346;50.820;16.274;2023-06-01T09:35:48;29.30;45.50
36442;DHT22;64346;50.820;16.274;2023-06-01T09:38:24;28.80;45.70
36442;DHT22;64346;50.820;16.274;2023-06-01T09:41:02;28.30;46.30
36442;DHT22;64346;50.820;16.274;2023-06-01T09:43:34;28.10;47.40
36442;DHT22;64346;50.820;16.274;2023-06-01T09:48:30;27.70;47.80
36442;DHT22;64346;50.820;16.274;2023-06-01T09:50:57;27.60;48.30
36442;DHT22;64346;50.820;16.274;2023-06-01T09:53:42;27.50;48.70
36442;DHT22;64346;50.820;16.274;2023-06-01T09:56:10;27.40;48.80
36442;DHT22;64346;50.820;16.274;2023-06-01T09:58:38;27.20;47.30
36442;DHT22;64346;50.820;16.274;2023-06-01T10:01:08;27.10;48.10
36442;DHT22;64346;50.820;16.274;2023-06-01T10:03:40;27.00;47.70
36442;DHT22;64346;50.820;16.274;2023-06-01T10:06:11;26.80;48.10
36442;DHT22;64346;50.820;16.274;2023-06-01T10:08:41;26.70;47.90
36442;DHT22;64346;50.820;16.274;2023-06-01T10:11:09;26.60;48.20
36442;DHT22;64346;50.820;16.274;2023-06-01T10:13:36;26.40;49.10
36442;DHT22;64346;50.820;16.274;2023-06-01T10:16:07;26.30;49.30
36442;DHT22;64346;50.820;16.274;2023-06-01T10:18:35;26.20;49.50
36442;DHT22;64346;50.820;16.274;2023-06-01T10:21:03;26.30;50.50
36442;DHT22;64346;50.820;16.274;2023-06-01T10:23:31;26.40;50.00
36442;DHT22;64346;50.820;16.274;2023-06-01T10:26:06;26.50;49.50
36442;DHT22;64346;50.820;16.274;2023-06-01T10:28:36;26.70;49.90
36442;DHT22;64346;50.820;16.274;2023-06-01T10:31:40;26.90;49.60
36442;DHT22;64346;50.820;16.274;2023-06-01T10:34:13;27.00;48.10
36442;DHT22;64346;50.820;16.274;2023-06-01T10:39:28;27.10;48.60
36442;DHT22;64346;50.820;16.274;2023-06-01T10:42:34;27.20;48.40
36442;DHT22;64346;50.820;16.274;2023-06-01T10:44:52;27.30;47.90
36442;DHT22;64346;50.820;16.274;2023-06-01T11:00:22;27.60;48.40
36442;DHT22;64346;50.820;16.274;2023-06-01T11:03:00;27.60;47.40
36442;DHT22;64346;50.820;16.274;2023-06-01T11:13:35;27.60;49.70
36442;DHT22;64346;50.820;16.274;2023-06-01T11:28:40;27.50;49.50
36442;DHT22;64346;50.820;16.274;2023-06-01T11:31:12;27.30;47.40
36442;DHT22;64346;50.820;16.274;2023-06-01T11:33:40;27.10;48.30
36442;DHT22;64346;50.820;16.274;2023-06-01T11:36:08;27.10;48.70
36442;DHT22;64346;50.820;16.274;2023-06-01T11:38:48;27.00;49.50
36442;DHT22;64346;50.820;16.274;2023-06-01T11:41:15;26.90;49.10
36442;DHT22;64346;50.820;16.274;2023-06-01T11:43:43;26.80;48.70
36442;DHT22;64346;50.820;16.274;2023-06-01T11:46:10;26.80;48.90
36442;DHT22;64346;50.820;16.274;2023-06-01T11:49:09;26.80;49.40
36442;DHT22;64346;50.820;16.274;2023-06-01T11:51:39;26.80;50.60
36442;DHT22;64346;50.820;16.274;2023-06-01T11:54:09;26.70;50.00
36442;DHT22;64346;50.820;16.274;2023-06-01T11:56:37;26.60;49.40
36442;DHT22;64346;50.820;16.274;2023-06-01T11:59:05;26.50;50.90
36442;DHT22;64346;50.820;16.274;2023-06-01T12:01:33;26.50;50.90
36442;DHT22;64346;50.820;16.274;2023-06-01T12:04:00;26.40;50.80
36442;DHT22;64346;50.820;16.274;2023-06-01T12:06:28;26.40;50.50
36442;DHT22;64346;50.820;16.274;2023-06-01T12:08:56;26.40;51.20
36442;DHT22;64346;50.820;16.274;2023-06-01T12:11:27;26.30;51.40
36442;DHT22;64346;50.820;16.274;2023-06-01T12:13:55;26.30;51.10
36442;DHT22;64346;50.820;16.274;2023-06-01T12:16:25;26.30;51.20
36442;DHT22;64346;50.820;16.274;2023-06-01T12:19:12;26.20;51.20
36442;DHT22;64346;50.820;16.274;2023-06-01T12:21:53;26.10;51.20
36442;DHT22;64346;50.820;16.274;2023-06-01T12:24:32;26.10;51.80
36442;DHT22;64346;50.820;16.274;2023-06-01T12:27:01;26.10;52.10
36442;DHT22;64346;50.820;16.274;2023-06-01T12:29:38;26.10;52.30
36442;DHT22;64346;50.820;16.274;2023-06-01T12:32:06;26.10;51.70
36442;DHT22;64346;50.820;16.274;2023-06-01T12:34:35;26.10;51.30
36442;DHT22;64346;50.820;16.274;2023-06-01T12:37:19;26.10;51.60
36442;DHT22;64346;50.820;16.274;2023-06-01T12:39:54;26.10;51.00
36442;DHT22;64346;50.820;16.274;2023-06-01T12:42:39;26.00;51.30
36442;DHT22;64346;50.820;16.274;2023-06-01T12:45:07;25.90;51.60
36442;DHT22;64346;50.820;16.274;2023-06-01T12:47:39;25.90;51.80
36442;DHT22;64346;50.820;16.274;2023-06-01T12:50:11;25.80;53.80
36442;DHT22;64346;50.820;16.274;2023-06-01T12:52:42;25.80;52.20
36442;DHT22;64346;50.820;16.274;2023-06-01T12:55:12;25.80;52.90
36442;DHT22;64346;50.820;16.274;2023-06-01T12:57:39;25.80;54.20
36442;DHT22;64346;50.820;16.274;2023-06-01T13:00:07;25.80;52.90
36442;DHT22;64346;50.820;16.274;2023-06-01T13:02:37;25.80;52.90
36442;DHT22;64346;50.820;16.274;2023-06-01T13:05:08;25.80;53.50
36442;DHT22;64346;50.820;16.274;2023-06-01T13:07:35;25.70;53.00
36442;DHT22;64346;50.820;16.274;2023-06-01T13:10:03;25.70;53.10
36442;DHT22;64346;50.820;16.274;2023-06-01T13:12:30;25.70;53.10
36442;DHT22;64346;50.820;16.274;2023-06-01T13:14:58;25.70;52.90
36442;DHT22;64346;50.820;16.274;2023-06-01T13:17:28;25.70;51.80
36442;DHT22;64346;50.820;16.274;2023-06-01T13:19:55;25.60;52.70
36442;DHT22;64346;50.820;16.274;2023-06-01T13:22:25;25.60;52.70
36442;DHT22;64346;50.820;16.274;2023-06-01T13:24:55;25.60;53.00
36442;DHT22;64346;50.820;16.274;2023-06-01T13:27:32;25.60;52.70
36442;DHT22;64346;50.820;16.274;2023-06-01T13:29:59;25.60;53.10
36442;DHT22;64346;50.820;16.274;2023-06-01T13:32:27;25.60;52.90
36442;DHT22;64346;50.820;16.274;2023-06-01T13:34:55;25.60;52.10
36442;DHT22;64346;50.820;16.274;2023-06-01T13:37:22;25.50;53.20
36442;DHT22;64346;50.820;16.274;2023-06-01T13:39:52;25.50;53.20
36442;DHT22;64346;50.820;16.274;2023-06-01T13:42:20;25.50;54.20
36442;DHT22;64346;50.820;16.274;2023-06-01T13:44:47;25.50;53.10
36442;DHT22;64346;50.820;16.274;2023-06-01T13:47:15;25.50;53.80
36442;DHT22;64346;50.820;16.274;2023-06-01T13:49:45;25.50;54.00
36442;DHT22;64346;50.820;16.274;2023-06-01T13:52:12;25.50;53.10
36442;DHT22;64346;50.820;16.274;2023-06-01T13:54:40;25.40;54.80
36442;DHT22;64346;50.820;16.274;2023-06-01T13:57:10;25.50;54.00
36442;DHT22;64346;50.820;16.274;2023-06-01T13:59:40;25.40;53.20
36442;DHT22;64346;50.820;16.274;2023-06-01T14:02:07;25.50;53.20
36442;DHT22;64346;50.820;16.274;2023-06-01T14:04:35;25.40;53.10
36442;DHT22;64346;50.820;16.274;2023-06-01T14:07:02;25.40;53.10
36442;DHT22;64346;50.820;16.274;2023-06-01T14:09:34;25.40;53.40
36442;DHT22;64346;50.820;16.274;2023-06-01T14:12:04;25.30;53.80
36442;DHT22;64346;50.820;16.274;2023-06-01T14:14:34;25.30;54.00
36442;DHT22;64346;50.820;16.274;2023-06-01T14:17:03;25.20;54.30
36442;DHT22;64346;50.820;16.274;2023-06-01T14:19:31;25.20;54.20
36442;DHT22;64346;50.820;16.274;2023-06-01T14:21:58;25.10;55.00
36442;DHT22;64346;50.820;16.274;2023-06-01T14:24:28;25.10;54.70
36442;DHT22;64346;50.820;16.274;2023-06-01T14:26:57;25.00;54.60
36442;DHT22;64346;50.820;16.274;2023-06-01T14:29:27;25.00;54.20
36442;DHT22;64346;50.820;16.274;2023-06-01T14:31:57;24.90;54.20
36442;DHT22;64346;50.820;16.274;2023-06-01T14:34:26;24.90;54.80
36442;DHT22;64346;50.820;16.274;2023-06-01T14:36:54;24.90;54.30
36442;DHT22;64346;50.820;16.274;2023-06-01T14:39:21;24.90;54.60
36442;DHT22;64346;50.820;16.274;2023-06-01T14:41:48;24.80;54.40
36442;DHT22;64346;50.820;16.274;2023-06-01T14:44:18;24.80;55.00
36442;DHT22;64346;50.820;16.274;2023-06-01T14:46:45;24.80;55.80
36442;DHT22;64346;50.820;16.274;2023-06-01T14:49:13;24.80;55.60
36442;DHT22;64346;50.820;16.274;2023-06-01T14:51:40;24.70;56.00
36442;DHT22;64346;50.820;16.274;2023-06-01T14:54:08;24.80;55.70
36442;DHT22;64346;50.820;16.274;2023-06-01T14:56:35;24.70;56.10
36442;DHT22;64346;50.820;16.274;2023-06-01T14:59:02;24.70;55.40
36442;DHT22;64346;50.820;16.274;2023-06-01T15:01:30;24.70;55.40
36442;DHT22;64346;50.820;16.274;2023-06-01T15:03:57;24.60;54.80
36442;DHT22;64346;50.820;16.274;2023-06-01T15:06:27;24.60;55.30
36442;DHT22;64346;50.820;16.274;2023-06-01T15:08:54;24.60;55.30
36442;DHT22;64346;50.820;16.274;2023-06-01T15:11:23;24.60;55.60
36442;DHT22;64346;50.820;16.274;2023-06-01T15:13:51;24.60;55.20
36442;DHT22;64346;50.820;16.274;2023-06-01T15:16:18;24.60;55.00
36442;DHT22;64346;50.820;16.274;2023-06-01T15:18:46;24.60;55.60
36442;DHT22;64346;50.820;16.274;2023-06-01T15:21:13;24.60;55.70
36442;DHT22;64346;50.820;16.274;2023-06-01T15:23:40;24.60;55.10
36442;DHT22;64346;50.820;16.274;2023-06-01T15:26:08;24.50;56.30
36442;DHT22;64346;50.820;16.274;2023-06-01T15:28:39;24.50;54.20
36442;DHT22;64346;50.820;16.274;2023-06-01T15:31:08;24.50;53.80
36442;DHT22;64346;50.820;16.274;2023-06-01T15:33:36;24.40;54.20
36442;DHT22;64346;50.820;16.274;2023-06-01T15:36:06;24.40;55.90
36442;DHT22;64346;50.820;16.274;2023-06-01T15:38:36;24.40;55.60
36442;DHT22;64346;50.820;16.274;2023-06-01T15:41:06;24.40;54.50
36442;DHT22;64346;50.820;16.274;2023-06-01T15:43:34;24.40;54.70
36442;DHT22;64346;50.820;16.274;2023-06-01T15:46:05;24.40;53.30
36442;DHT22;64346;50.820;16.274;2023-06-01T15:48:33;24.30;53.40
36442;DHT22;64346;50.820;16.274;2023-06-01T15:51:02;24.30;54.50
36442;DHT22;64346;50.820;16.274;2023-06-01T15:53:30;24.30;54.30
36442;DHT22;64346;50.820;16.274;2023-06-01T15:55:57;24.30;53.80
36442;DHT22;64346;50.820;16.274;2023-06-01T15:58:37;24.20;52.80
36442;DHT22;64346;50.820;16.274;2023-06-01T16:01:05;24.10;52.80
36442;DHT22;64346;50.820;16.274;2023-06-01T16:03:38;24.10;53.30
36442;DHT22;64346;50.820;16.274;2023-06-01T16:06:05;24.20;54.20
36442;DHT22;64346;50.820;16.274;2023-06-01T16:08:35;24.20;53.80
36442;DHT22;64346;50.820;16.274;2023-06-01T16:11:04;24.10;53.60
36442;DHT22;64346;50.820;16.274;2023-06-01T16:13:32;24.10;53.30
36442;DHT22;64346;50.820;16.274;2023-06-01T16:16:01;24.10;53.00
36442;DHT22;64346;50.820;16.274;2023-06-01T16:18:31;24.10;52.60